sensor_id;sensor_type;location;lat;lon;timestamp;P1;P2;P0
42410;PMS5003;28056;51.112;0.984;2023-06-10T00:04:51;26;22;
42410;PMS5003;28056;51.112;0.984;2023-06-10T00:07:19;26;19;
42410;PMS5003;28056;51.112;0.984;2023-06-10T00:09:46;27;22;
42410;PMS5003;28056;51.112;0.984;2023-06-10T00:12:14;22;21;
42410;PMS5003;28056;51.112;0.984;2023-06-10T00:14:42;25;23;
42410;PMS5003;28056;51.112;0.984;2023-06-10T00:17:09;21;17;
42410;PMS5003;28056;51.112;0.984;2023-06-10T00:19:36;26;23;
42410;PMS5003;28056;51.112;0.984;2023-06-10T00:22:04;24;18;
42410;PMS5003;28056;51.112;0.984;2023-06-10T00:24:31;23;21;
42410;PMS5003;28056;51.112;0.984;2023-06-10T00:26:59;21;21;
42410;PMS5003;28056;51.112;0.984;2023-06-10T00:29:26;23;21;
42410;PMS5003;28056;51.112;0.984;2023-06-10T00:31:54;25;23;
42410;PMS5003;28056;51.112;0.984;2023-06-10T00:34:21;24;19;
42410;PMS5003;28056;51.112;0.984;2023-06-10T00:36:48;24;20;
42410;PMS5003;28056;51.112;0.984;2023-06-10T00:39:16;21;19;
42410;PMS5003;28056;51.112;0.984;2023-06-10T00:41:43;28;24;
42410;PMS5003;28056;51.112;0.984;2023-06-10T00:44:10;22;18;
42410;PMS5003;28056;51.112;0.984;2023-06-10T00:46:38;23;19;
42410;PMS5003;28056;51.112;0.984;2023-06-10T00:49:05;26;25;
42410;PMS5003;28056;51.112;0.984;2023-06-10T00:51:34;26;18;
42410;PMS5003;28056;51.112;0.984;2023-06-10T00:54:02;27;25;
42410;PMS5003;28056;51.112;0.984;2023-06-10T00:56:31;25;23;
42410;PMS5003;28056;51.112;0.984;2023-06-10T00:58:59;24;19;
42410;PMS5003;28056;51.112;0.984;2023-06-10T01:01:27;21;21;
42410;PMS5003;28056;51.112;0.984;2023-06-10T01:03:55;24;21;
42410;PMS5003;28056;51.112;0.984;2023-06-10T01:06:24;20;17;
42410;PMS5003;28056;51.112;0.984;2023-06-10T01:09:00;22;22;
42410;PMS5003;28056;51.112;0.984;2023-06-10T01:11:34;25;21;
42410;PMS5003;28056;51.112;0.984;2023-06-10T01:14:07;26;23;
42410;PMS5003;28056;51.112;0.984;2023-06-10T01:16:36;24;20;
42410;PMS5003;28056;51.112;0.984;2023-06-10T01:19:04;19;19;
42410;PMS5003;28056;51.112;0.984;2023-06-10T01:21:31;23;21;
42410;PMS5003;28056;51.112;0.984;2023-06-10T01:23:59;28;21;
42410;PMS5003;28056;51.112;0.984;2023-06-10T01:26:28;21;21;
42410;PMS5003;28056;51.112;0.984;2023-06-10T01:28:59;26;22;
42410;PMS5003;28056;51.112;0.984;2023-06-10T01:31:38;29;25;
42410;PMS5003;28056;51.112;0.984;2023-06-10T01:34:10;27;21;
42410;PMS5003;28056;51.112;0.984;2023-06-10T01:36:40;24;21;
42410;PMS5003;28056;51.112;0.984;2023-06-10T01:39:10;18;16;
42410;PMS5003;28056;51.112;0.984;2023-06-10T01:41:38;27;21;
42410;PMS5003;28056;51.112;0.984;2023-06-10T01:44:12;28;25;
42410;PMS5003;28056;51.112;0.984;2023-06-10T01:46:44;19;18;
42410;PMS5003;28056;51.112;0.984;2023-06-10T01:49:11;25;21;
42410;PMS5003;28056;51.112;0.984;2023-06-10T01:51:39;21;21;
42410;PMS5003;28056;51.112;0.984;2023-06-10T01:54:07;26;25;
42410;PMS5003;28056;51.112;0.984;2023-06-10T01:56:35;23;20;
42410;PMS5003;28056;51.112;0.984;2023-06-10T01:59:02;25;22;
42410;PMS5003;28056;51.112;0.984;2023-06-10T02:01:29;25;22;
42410;PMS5003;28056;51.112;0.984;2023-06-10T02:03:56;21;18;
42410;PMS5003;28056;51.112;0.984;2023-06-10T02:06:24;27;24;
42410;PMS5003;28056;51.112;0.984;2023-06-10T02:08:51;25;25;
42410;PMS5003;28056;51.112;0.984;2023-06-10T02:11:19;26;22;
42410;PMS5003;28056;51.112;0.984;2023-06-10T02:13:46;26;19;
42410;PMS5003;28056;51.112;0.984;2023-06-10T02:16:14;32;27;
42410;PMS5003;28056;51.112;0.984;2023-06-10T02:18:41;26;21;
42410;PMS5003;28056;51.112;0.984;2023-06-10T02:21:08;29;25;
42410;PMS5003;28056;51.112;0.984;2023-06-10T02:23:36;31;26;
42410;PMS5003;28056;51.112;0.984;2023-06-10T02:26:04;25;24;
42410;PMS5003;28056;51.112;0.984;2023-06-10T02:28:32;26;23;
42410;PMS5003;28056;51.112;0.984;2023-06-10T02:31:03;32;27;
42410;PMS5003;28056;51.112;0.984;2023-06-10T02:33:30;34;28;
42410;PMS5003;28056;51.112;0.984;2023-06-10T02:35:57;30;26;
42410;PMS5003;28056;51.112;0.984;2023-06-10T02:38:25;29;25;
42410;PMS5003;28056;51.112;0.984;2023-06-10T02:40:57;27;24;
42410;PMS5003;28056;51.112;0.984;2023-06-10T02:43:29;31;28;
42410;PMS5003;28056;51.112;0.984;2023-06-10T02:45:57;33;31;
42410;PMS5003;28056;51.112;0.984;2023-06-10T02:48:25;24;23;
42410;PMS5003;28056;51.112;0.984;2023-06-10T02:50:52;29;26;
42410;PMS5003;28056;51.112;0.984;2023-06-10T02:53:19;22;22;
42410;PMS5003;28056;51.112;0.984;2023-06-10T02:55:47;31;25;
42410;PMS5003;28056;51.112;0.984;2023-06-10T02:58:14;31;25;
42410;PMS5003;28056;51.112;0.984;2023-06-10T03:00:41;29;26;
42410;PMS5003;28056;51.112;0.984;2023-06-10T03:03:08;28;28;
42410;PMS5003;28056;51.112;0.984;2023-06-10T03:05:36;27;24;
42410;PMS5003;28056;51.112;0.984;2023-06-10T03:08:03;27;24;
42410;PMS5003;28056;51.112;0.984;2023-06-10T03:10:31;37;30;
42410;PMS5003;28056;51.112;0.984;2023-06-10T03:12:58;29;26;
42410;PMS5003;28056;51.112;0.984;2023-06-10T03:15:25;29;29;
42410;PMS5003;28056;51.112;0.984;2023-06-10T03:17:53;26;25;
42410;PMS5003;28056;51.112;0.984;2023-06-10T03:20:20;34;29;
42410;PMS5003;28056;51.112;0.984;2023-06-10T03:22:47;28;28;
42410;PMS5003;28056;51.112;0.984;2023-06-10T03:25:14;31;28;
42410;PMS5003;28056;51.112;0.984;2023-06-10T03:27:42;31;26;
42410;PMS5003;28056;51.112;0.984;2023-06-10T03:30:09;35;32;
42410;PMS5003;28056;51.112;0.984;2023-06-10T03:32:39;32;29;
42410;PMS5003;28056;51.112;0.984;2023-06-10T03:35:07;29;27;
42410;PMS5003;28056;51.112;0.984;2023-06-10T03:37:35;32;31;
42410;PMS5003;28056;51.112;0.984;2023-06-10T03:40:02;37;30;
42410;PMS5003;28056;51.112;0.984;2023-06-10T03:42:29;35;29;
42410;PMS5003;28056;51.112;0.984;2023-06-10T03:44:56;29;28;
42410;PMS5003;28056;51.112;0.984;2023-06-10T03:47:32;32;28;
42410;PMS5003;28056;51.112;0.984;2023-06-10T03:50:00;29;26;
42410;PMS5003;28056;51.112;0.984;2023-06-10T03:52:27;36;31;
42410;PMS5003;28056;51.112;0.984;2023-06-10T03:54:55;33;30;
42410;PMS5003;28056;51.112;0.984;2023-06-10T03:57:22;34;30;
42410;PMS5003;28056;51.112;0.984;2023-06-10T03:59:50;28;27;
42410;PMS5003;28056;51.112;0.984;2023-06-10T04:02:17;31;28;
42410;PMS5003;28056;51.112;0.984;2023-06-10T04:04:44;35;31;
42410;PMS5003;28056;51.112;0.984;2023-06-10T04:07:12;33;29;
42410;PMS5003;28056;51.112;0.984;2023-06-10T04:09:39;36;32;
42410;PMS5003;28056;51.112;0.984;2023-06-10T04:12:11;32;31;
42410;PMS5003;28056;51.112;0.984;2023-06-10T04:14:39;37;34;
42410;PMS5003;28056;51.112;0.984;2023-06-10T04:17:06;32;28;
42410;PMS5003;28056;51.112;0.984;2023-06-10T04:19:34;32;32;
42410;PMS5003;28056;51.112;0.984;2023-06-10T04:22:07;30;30;
42410;PMS5003;28056;51.112;0.984;2023-06-10T04:24:34;25;25;
42410;PMS5003;28056;51.112;0.984;2023-06-10T04:27:02;29;27;
42410;PMS5003;28056;51.112;0.984;2023-06-10T04:29:34;30;27;
42410;PMS5003;28056;51.112;0.984;2023-06-10T04:32:02;31;30;
42410;PMS5003;28056;51.112;0.984;2023-06-10T04:34:29;30;30;
42410;PMS5003;28056;51.112;0.984;2023-06-10T04:36:57;27;27;
42410;PMS5003;28056;51.112;0.984;2023-06-10T04:39:24;33;28;
42410;PMS5003;28056;51.112;0.984;2023-06-10T04:41:51;37;29;
42410;PMS5003;28056;51.112;0.984;2023-06-10T04:44:19;31;28;
42410;PMS5003;28056;51.112;0.984;2023-06-10T04:46:46;29;29;
42410;PMS5003;28056;51.112;0.984;2023-06-10T04:49:14;29;25;
42410;PMS5003;28056;51.112;0.984;2023-06-10T04:51:41;26;25;
42410;PMS5003;28056;51.112;0.984;2023-06-10T04:54:08;32;29;
42410;PMS5003;28056;51.112;0.984;2023-06-10T04:56:35;34;30;
42410;PMS5003;28056;51.112;0.984;2023-06-10T04:59:03;31;31;
42410;PMS5003;28056;51.112;0.984;2023-06-10T05:01:30;31;30;
42410;PMS5003;28056;51.112;0.984;2023-06-10T05:03:58;29;28;
42410;PMS5003;28056;51.112;0.984;2023-06-10T05:06:25;38;33;
42410;PMS5003;28056;51.112;0.984;2023-06-10T05:08:52;32;31;
42410;PMS5003;28056;51.112;0.984;2023-06-10T05:11:19;33;30;
42410;PMS5003;28056;51.112;0.984;2023-06-10T05:13:46;35;32;
42410;PMS5003;28056;51.112;0.984;2023-06-10T05:16:14;35;29;
42410;PMS5003;28056;51.112;0.984;2023-06-10T05:18:42;28;28;
42410;PMS5003;28056;51.112;0.984;2023-06-10T05:21:09;29;27;
42410;PMS5003;28056;51.112;0.984;2023-06-10T05:23:36;28;28;
42410;PMS5003;28056;51.112;0.984;2023-06-10T05:26:04;31;27;
42410;PMS5003;28056;51.112;0.984;2023-06-10T05:28:31;33;29;
42410;PMS5003;28056;51.112;0.984;2023-06-10T05:30:59;32;31;
42410;PMS5003;28056;51.112;0.984;2023-06-10T05:33:26;38;33;
42410;PMS5003;28056;51.112;0.984;2023-06-10T05:35:54;27;26;
42410;PMS5003;28056;51.112;0.984;2023-06-10T05:38:21;29;27;
42410;PMS5003;28056;51.112;0.984;2023-06-10T05:40:48;26;25;
42410;PMS5003;28056;51.112;0.984;2023-06-10T05:43:16;27;25;
42410;PMS5003;28056;51.112;0.984;2023-06-10T05:45:46;29;28;
42410;PMS5003;28056;51.112;0.984;2023-06-10T05:48:15;27;23;
42410;PMS5003;28056;51.112;0.984;2023-06-10T05:50:47;26;26;
42410;PMS5003;28056;51.112;0.984;2023-06-10T05:53:21;24;24;
42410;PMS5003;28056;51.112;0.984;2023-06-10T05:55:52;27;25;
42410;PMS5003;28056;51.112;0.984;2023-06-10T05:58:25;33;30;
42410;PMS5003;28056;51.112;0.984;2023-06-10T06:00:54;27;24;
42410;PMS5003;28056;51.112;0.984;2023-06-10T06:03:23;24;24;
42410;PMS5003;28056;51.112;0.984;2023-06-10T06:05:52;30;27;
42410;PMS5003;28056;51.112;0.984;2023-06-10T06:08:25;28;27;
42410;PMS5003;28056;51.112;0.984;2023-06-10T06:10:56;34;28;
42410;PMS5003;28056;51.112;0.984;2023-06-10T06:13:27;28;27;
42410;PMS5003;28056;51.112;0.984;2023-06-10T06:15:56;30;25;
42410;PMS5003;28056;51.112;0.984;2023-06-10T06:18:23;30;26;
42410;PMS5003;28056;51.112;0.984;2023-06-10T06:20:54;28;23;
42410;PMS5003;28056;51.112;0.984;2023-06-10T06:23:23;24;22;
42410;PMS5003;28056;51.112;0.984;2023-06-10T06:25:52;25;25;
42410;PMS5003;28056;51.112;0.984;2023-06-10T06:28:22;22;21;
42410;PMS5003;28056;51.112;0.984;2023-06-10T06:30:55;31;27;
42410;PMS5003;28056;51.112;0.984;2023-06-10T06:33:24;26;25;
42410;PMS5003;28056;51.112;0.984;2023-06-10T06:35:55;26;25;
42410;PMS5003;28056;51.112;0.984;2023-06-10T06:38:27;25;24;
42410;PMS5003;28056;51.112;0.984;2023-06-10T06:40:55;27;25;
42410;PMS5003;28056;51.112;0.984;2023-06-10T06:43:25;24;23;
42410;PMS5003;28056;51.112;0.984;2023-06-10T06:45:57;24;24;
42410;PMS5003;28056;51.112;0.984;2023-06-10T06:48:28;28;26;
42410;PMS5003;28056;51.112;0.984;2023-06-10T06:50:57;26;25;
42410;PMS5003;28056;51.112;0.984;2023-06-10T06:53:26;26;25;
42410;PMS5003;28056;51.112;0.984;2023-06-10T06:55:54;28;23;
42410;PMS5003;28056;51.112;0.984;2023-06-10T06:58:23;26;25;
42410;PMS5003;28056;51.112;0.984;2023-06-10T07:00:53;29;26;
42410;PMS5003;28056;51.112;0.984;2023-06-10T07:03:21;26;26;
42410;PMS5003;28056;51.112;0.984;2023-06-10T07:05:51;22;21;
42410;PMS5003;28056;51.112;0.984;2023-06-10T07:08:19;27;27;
42410;PMS5003;28056;51.112;0.984;2023-06-10T07:10:48;26;23;
42410;PMS5003;28056;51.112;0.984;2023-06-10T07:13:17;26;26;
42410;PMS5003;28056;51.112;0.984;2023-06-10T07:15:47;26;26;
42410;PMS5003;28056;51.112;0.984;2023-06-10T07:18:17;25;23;
42410;PMS5003;28056;51.112;0.984;2023-06-10T07:20:45;21;21;
42410;PMS5003;28056;51.112;0.984;2023-06-10T07:23:22;25;23;
42410;PMS5003;28056;51.112;0.984;2023-06-10T07:25:52;29;26;
42410;PMS5003;28056;51.112;0.984;2023-06-10T07:28:20;27;27;
42410;PMS5003;28056;51.112;0.984;2023-06-10T07:30:47;24;22;
42410;PMS5003;28056;51.112;0.984;2023-06-10T07:33:21;22;21;
42410;PMS5003;28056;51.112;0.984;2023-06-10T07:35:50;26;25;
42410;PMS5003;28056;51.112;0.984;2023-06-10T07:38:18;23;22;
42410;PMS5003;28056;51.112;0.984;2023-06-10T07:40:47;23;23;
42410;PMS5003;28056;51.112;0.984;2023-06-10T07:43:16;26;25;
42410;PMS5003;28056;51.112;0.984;2023-06-10T07:45:45;24;23;
42410;PMS5003;28056;51.112;0.984;2023-06-10T07:48:14;25;25;
42410;PMS5003;28056;51.112;0.984;2023-06-10T07:50:45;27;26;
42410;PMS5003;28056;51.112;0.984;2023-06-10T07:53:16;24;24;
42410;PMS5003;28056;51.112;0.984;2023-06-10T07:55:44;28;28;
42410;PMS5003;28056;51.112;0.984;2023-06-10T07:58:15;30;27;
42410;PMS5003;28056;51.112;0.984;2023-06-10T08:00:45;20;20;
42410;PMS5003;28056;51.112;0.984;2023-06-10T08:03:16;24;24;
42410;PMS5003;28056;51.112;0.984;2023-06-10T08:05:45;27;25;
42410;PMS5003;28056;51.112;0.984;2023-06-10T08:08:14;23;21;
42410;PMS5003;28056;51.112;0.984;2023-06-10T08:10:43;26;24;
42410;PMS5003;28056;51.112;0.984;2023-06-10T08:13:14;24;23;
42410;PMS5003;28056;51.112;0.984;2023-06-10T08:15:43;24;23;
42410;PMS5003;28056;51.112;0.984;2023-06-10T08:18:11;24;24;
42410;PMS5003;28056;51.112;0.984;2023-06-10T08:20:40;25;23;
42410;PMS5003;28056;51.112;0.984;2023-06-10T08:23:10;26;24;
42410;PMS5003;28056;51.112;0.984;2023-06-10T08:25:42;21;21;
42410;PMS5003;28056;51.112;0.984;2023-06-10T08:28:12;26;24;
42410;PMS5003;28056;51.112;0.984;2023-06-10T08:30:40;26;26;
42410;PMS5003;28056;51.112;0.984;2023-06-10T08:33:07;26;23;
42410;PMS5003;28056;51.112;0.984;2023-06-10T08:35:35;28;23;
42410;PMS5003;28056;51.112;0.984;2023-06-10T08:38:05;25;25;
42410;PMS5003;28056;51.112;0.984;2023-06-10T08:40:32;24;24;
42410;PMS5003;28056;51.112;0.984;2023-06-10T08:43:04;24;24;
42410;PMS5003;28056;51.112;0.984;2023-06-10T08:45:35;23;23;
42410;PMS5003;28056;51.112;0.984;2023-06-10T08:48:04;23;22;
42410;PMS5003;28056;51.112;0.984;2023-06-10T08:50:35;24;23;
42410;PMS5003;28056;51.112;0.984;2023-06-10T08:53:04;24;24;
42410;PMS5003;28056;51.112;0.984;2023-06-10T08:55:36;24;23;
42410;PMS5003;28056;51.112;0.984;2023-06-10T08:58:09;22;21;
42410;PMS5003;28056;51.112;0.984;2023-06-10T09:00:38;23;23;
42410;PMS5003;28056;51.112;0.984;2023-06-10T09:03:06;24;24;
42410;PMS5003;28056;51.112;0.984;2023-06-10T09:05:37;19;19;
42410;PMS5003;28056;51.112;0.984;2023-06-10T09:08:06;22;22;
42410;PMS5003;28056;51.112;0.984;2023-06-10T09:10:37;24;24;
42410;PMS5003;28056;51.112;0.984;2023-06-10T09:13:05;25;23;
42410;PMS5003;28056;51.112;0.984;2023-06-10T09:15:35;20;20;
42410;PMS5003;28056;51.112;0.984;2023-06-10T09:18:04;25;25;
42410;PMS5003;28056;51.112;0.984;2023-06-10T09:20:33;21;21;
42410;PMS5003;28056;51.112;0.984;2023-06-10T09:23:01;26;24;
42410;PMS5003;28056;51.112;0.984;2023-06-10T09:25:35;29;26;
42410;PMS5003;28056;51.112;0.984;2023-06-10T09:28:12;27;26;
42410;PMS5003;28056;51.112;0.984;2023-06-10T09:30:41;22;22;
42410;PMS5003;28056;51.112;0.984;2023-06-10T09:33:14;21;20;
42410;PMS5003;28056;51.112;0.984;2023-06-10T09:35:45;24;24;
42410;PMS5003;28056;51.112;0.984;2023-06-10T09:38:14;22;22;
42410;PMS5003;28056;51.112;0.984;2023-06-10T09:40:51;23;23;
42410;PMS5003;28056;51.112;0.984;2023-06-10T09:43:23;25;25;
42410;PMS5003;28056;51.112;0.984;2023-06-10T09:46:06;24;23;
42410;PMS5003;28056;51.112;0.984;2023-06-10T09:48:44;25;24;
42410;PMS5003;28056;51.112;0.984;2023-06-10T09:51:17;24;23;
42410;PMS5003;28056;51.112;0.984;2023-06-10T09:53:49;23;23;
42410;PMS5003;28056;51.112;0.984;2023-06-10T09:56:22;24;22;
42410;PMS5003;28056;51.112;0.984;2023-06-10T09:59:04;23;23;
42410;PMS5003;28056;51.112;0.984;2023-06-10T10:01:34;27;26;
42410;PMS5003;28056;51.112;0.984;2023-06-10T10:04:01;24;23;
42410;PMS5003;28056;51.112;0.984;2023-06-10T10:06:32;27;27;
42410;PMS5003;28056;51.112;0.984;2023-06-10T10:09:03;27;24;
42410;PMS5003;28056;51.112;0.984;2023-06-10T10:11:33;21;21;
42410;PMS5003;28056;51.112;0.984;2023-06-10T10:14:02;24;24;
42410;PMS5003;28056;51.112;0.984;2023-06-10T10:16:37;22;22;
42410;PMS5003;28056;51.112;0.984;2023-06-10T10:19:08;25;25;
42410;PMS5003;28056;51.112;0.984;2023-06-10T10:21:50;27;25;
42410;PMS5003;28056;51.112;0.984;2023-06-10T10:24:30;25;23;
42410;PMS5003;28056;51.112;0.984;2023-06-10T10:27:07;26;26;
42410;PMS5003;28056;51.112;0.984;2023-06-10T10:29:45;28;24;
42410;PMS5003;28056;51.112;0.984;2023-06-10T10:32:15;27;24;
42410;PMS5003;28056;51.112;0.984;2023-06-10T10:34:48;29;24;
42410;PMS5003;28056;51.112;0.984;2023-06-10T10:37:26;23;23;
42410;PMS5003;28056;51.112;0.984;2023-06-10T10:40:01;22;22;
42410;PMS5003;28056;51.112;0.984;2023-06-10T10:42:33;25;23;
42410;PMS5003;28056;51.112;0.984;2023-06-10T10:45:04;24;23;
42410;PMS5003;28056;51.112;0.984;2023-06-10T10:47:37;24;24;
42410;PMS5003;28056;51.112;0.984;2023-06-10T10:50:14;26;25;
42410;PMS5003;28056;51.112;0.984;2023-06-10T10:52:59;27;24;
42410;PMS5003;28056;51.112;0.984;2023-06-10T10:55:31;25;25;
42410;PMS5003;28056;51.112;0.984;2023-06-10T10:58:02;21;21;
42410;PMS5003;28056;51.112;0.984;2023-06-10T11:00:31;24;24;
42410;PMS5003;28056;51.112;0.984;2023-06-10T11:03:15;22;22;
42410;PMS5003;28056;51.112;0.984;2023-06-10T11:05:44;22;22;
42410;PMS5003;28056;51.112;0.984;2023-06-10T11:08:45;22;22;
42410;PMS5003;28056;51.112;0.984;2023-06-10T11:11:20;21;21;
42410;PMS5003;28056;51.112;0.984;2023-06-10T11:13:59;25;23;
42410;PMS5003;28056;51.112;0.984;2023-06-10T11:16:39;21;20;
42410;PMS5003;28056;51.112;0.984;2023-06-10T11:19:10;22;22;
42410;PMS5003;28056;51.112;0.984;2023-06-10T11:22:01;22;20;
42410;PMS5003;28056;51.112;0.984;2023-06-10T11:24:32;22;19;
42410;PMS5003;28056;51.112;0.984;2023-06-10T11:27:23;22;21;
42410;PMS5003;28056;51.112;0.984;2023-06-10T11:30:25;22;21;
42410;PMS5003;28056;51.112;0.984;2023-06-10T11:33:01;23;21;
42410;PMS5003;28056;51.112;0.984;2023-06-10T11:35:31;20;20;
42410;PMS5003;28056;51.112;0.984;2023-06-10T11:38:04;20;20;
42410;PMS5003;28056;51.112;0.984;2023-06-10T11:40:45;19;19;
42410;PMS5003;28056;51.112;0.984;2023-06-10T11:43:19;21;20;
42410;PMS5003;28056;51.112;0.984;2023-06-10T11:45:53;23;23;
42410;PMS5003;28056;51.112;0.984;2023-06-10T11:48:26;20;20;
42410;PMS5003;28056;51.112;0.984;2023-06-10T11:50:56;23;23;
42410;PMS5003;28056;51.112;0.984;2023-06-10T11:53:26;21;21;
42410;PMS5003;28056;51.112;0.984;2023-06-10T11:55:58;23;21;
42410;PMS5003;28056;51.112;0.984;2023-06-10T11:58:27;22;22;
42410;PMS5003;28056;51.112;0.984;2023-06-10T12:00:57;26;24;
42410;PMS5003;28056;51.112;0.984;2023-06-10T12:03:25;24;24;
42410;PMS5003;28056;51.112;0.984;2023-06-10T12:06:02;24;21;
42410;PMS5003;28056;51.112;0.984;2023-06-10T12:08:32;22;22;
42410;PMS5003;28056;51.112;0.984;2023-06-10T12:11:08;21;21;
42410;PMS5003;28056;51.112;0.984;2023-06-10T12:13:48;22;22;
42410;PMS5003;28056;51.112;0.984;2023-06-10T12:16:16;24;23;
42410;PMS5003;28056;51.112;0.984;2023-06-10T12:18:44;24;24;
42410;PMS5003;28056;51.112;0.984;2023-06-10T12:21:19;28;26;
42410;PMS5003;28056;51.112;0.984;2023-06-10T12:24:07;22;22;
42410;PMS5003;28056;51.112;0.984;2023-06-10T12:26:38;23;22;
42410;PMS5003;28056;51.112;0.984;2023-06-10T12:29:17;24;24;
42410;PMS5003;28056;51.112;0.984;2023-06-10T12:31:57;21;21;
42410;PMS5003;28056;51.112;0.984;2023-06-10T12:34:32;25;25;
42410;PMS5003;28056;51.112;0.984;2023-06-10T12:37:05;27;24;
42410;PMS5003;28056;51.112;0.984;2023-06-10T12:39:39;28;28;
42410;PMS5003;28056;51.112;0.984;2023-06-10T12:42:09;26;26;
42410;PMS5003;28056;51.112;0.984;2023-06-10T12:44:44;23;23;
42410;PMS5003;28056;51.112;0.984;2023-06-10T12:47:21;25;24;
42410;PMS5003;28056;51.112;0.984;2023-06-10T12:50:01;19;19;
42410;PMS5003;28056;51.112;0.984;2023-06-10T12:52:32;25;23;
42410;PMS5003;28056;51.112;0.984;2023-06-10T12:55:03;25;22;
42410;PMS5003;28056;51.112;0.984;2023-06-10T12:57:36;23;23;
42410;PMS5003;28056;51.112;0.984;2023-06-10T13:00:15;23;23;
42410;PMS5003;28056;51.112;0.984;2023-06-10T13:02:45;26;24;
42410;PMS5003;28056;51.112;0.984;2023-06-10T13:05:20;24;24;
42410;PMS5003;28056;51.112;0.984;2023-06-10T13:07:50;26;26;
42410;PMS5003;28056;51.112;0.984;2023-06-10T13:10:21;25;24;
42410;PMS5003;28056;51.112;0.984;2023-06-10T13:12:53;29;28;
42410;PMS5003;28056;51.112;0.984;2023-06-10T13:15:25;25;25;
42410;PMS5003;28056;51.112;0.984;2023-06-10T13:17:58;29;28;
42410;PMS5003;28056;51.112;0.984;2023-06-10T13:20:31;28;28;
42410;PMS5003;28056;51.112;0.984;2023-06-10T13:23:02;26;26;
42410;PMS5003;28056;51.112;0.984;2023-06-10T13:25:31;29;27;
42410;PMS5003;28056;51.112;0.984;2023-06-10T13:27:59;27;25;
42410;PMS5003;28056;51.112;0.984;2023-06-10T13:30:29;28;26;
42410;PMS5003;28056;51.112;0.984;2023-06-10T13:33:00;27;27;
42410;PMS5003;28056;51.112;0.984;2023-06-10T13:35:31;31;29;
42410;PMS5003;28056;51.112;0.984;2023-06-10T13:38:03;29;27;
42410;PMS5003;28056;51.112;0.984;2023-06-10T13:40:31;27;27;
42410;PMS5003;28056;51.112;0.984;2023-06-10T13:43:01;26;25;
42410;PMS5003;28056;51.112;0.984;2023-06-10T13:45:31;25;25;
42410;PMS5003;28056;51.112;0.984;2023-06-10T13:48:09;28;26;
42410;PMS5003;28056;51.112;0.984;2023-06-10T13:50:41;23;23;
42410;PMS5003;28056;51.112;0.984;2023-06-10T13:53:11;33;30;
42410;PMS5003;28056;51.112;0.984;2023-06-10T13:55:41;28;28;
42410;PMS5003;28056;51.112;0.984;2023-06-10T13:58:16;30;27;
42410;PMS5003;28056;51.112;0.984;2023-06-10T14:00:46;29;28;
42410;PMS5003;28056;51.112;0.984;2023-06-10T14:03:16;30;30;
42410;PMS5003;28056;51.112;0.984;2023-06-10T14:05:49;30;30;
42410;PMS5003;28056;51.112;0.984;2023-06-10T14:08:25;27;26;
42410;PMS5003;28056;51.112;0.984;2023-06-10T14:10:55;34;32;
42410;PMS5003;28056;51.112;0.984;2023-06-10T14:13:27;30;30;
42410;PMS5003;28056;51.112;0.984;2023-06-10T14:15:59;29;29;
42410;PMS5003;28056;51.112;0.984;2023-06-10T14:18:28;29;26;
42410;PMS5003;28056;51.112;0.984;2023-06-10T14:20:57;30;29;
42410;PMS5003;28056;51.112;0.984;2023-06-10T14:23:28;28;28;
42410;PMS5003;28056;51.112;0.984;2023-06-10T14:26:01;27;25;
42410;PMS5003;28056;51.112;0.984;2023-06-10T14:28:32;27;27;
42410;PMS5003;28056;51.112;0.984;2023-06-10T14:31:00;26;26;
42410;PMS5003;28056;51.112;0.984;2023-06-10T14:33:34;30;30;
42410;PMS5003;28056;51.112;0.984;2023-06-10T14:36:07;29;28;
42410;PMS5003;28056;51.112;0.984;2023-06-10T14:38:34;32;32;
42410;PMS5003;28056;51.112;0.984;2023-06-10T14:41:02;26;26;
42410;PMS5003;28056;51.112;0.984;2023-06-10T14:43:30;32;31;
42410;PMS5003;28056;51.112;0.984;2023-06-10T14:45:57;29;29;
42410;PMS5003;28056;51.112;0.984;2023-06-10T14:48:24;29;29;
42410;PMS5003;28056;51.112;0.984;2023-06-10T14:50:52;28;28;
42410;PMS5003;28056;51.112;0.984;2023-06-10T14:53:20;25;25;
42410;PMS5003;28056;51.112;0.984;2023-06-10T14:55:47;29;26;
42410;PMS5003;28056;51.112;0.984;2023-06-10T14:58:15;29;28;
42410;PMS5003;28056;51.112;0.984;2023-06-10T15:00:42;27;25;
42410;PMS5003;28056;51.112;0.984;2023-06-10T15:03:09;25;25;
42410;PMS5003;28056;51.112;0.984;2023-06-10T15:05:36;29;28;
42410;PMS5003;28056;51.112;0.984;2023-06-10T15:08:03;26;25;
42410;PMS5003;28056;51.112;0.984;2023-06-10T15:10:31;25;25;
42410;PMS5003;28056;51.112;0.984;2023-06-10T15:12:58;23;23;
42410;PMS5003;28056;51.112;0.984;2023-06-10T15:15:26;25;24;
42410;PMS5003;28056;51.112;0.984;2023-06-10T15:17:53;22;22;
42410;PMS5003;28056;51.112;0.984;2023-06-10T15:20:20;24;24;
42410;PMS5003;28056;51.112;0.984;2023-06-10T15:22:48;27;27;
42410;PMS5003;28056;51.112;0.984;2023-06-10T15:25:16;23;22;
42410;PMS5003;28056;51.112;0.984;2023-06-10T15:27:43;23;23;
42410;PMS5003;28056;51.112;0.984;2023-06-10T15:30:11;23;23;
42410;PMS5003;28056;51.112;0.984;2023-06-10T15:32:38;22;21;
42410;PMS5003;28056;51.112;0.984;2023-06-10T15:35:05;23;23;
42410;PMS5003;28056;51.112;0.984;2023-06-10T15:37:33;24;24;
42410;PMS5003;28056;51.112;0.984;2023-06-10T15:40:01;20;20;
42410;PMS5003;28056;51.112;0.984;2023-06-10T15:42:29;25;25;
42410;PMS5003;28056;51.112;0.984;2023-06-10T15:44:56;24;23;
42410;PMS5003;28056;51.112;0.984;2023-06-10T15:47:23;23;22;
42410;PMS5003;28056;51.112;0.984;2023-06-10T15:49:51;25;24;
42410;PMS5003;28056;51.112;0.984;2023-06-10T15:52:18;20;20;
42410;PMS5003;28056;51.112;0.984;2023-06-10T15:54:46;26;25;
42410;PMS5003;28056;51.112;0.984;2023-06-10T15:57:13;25;24;
42410;PMS5003;28056;51.112;0.984;2023-06-10T15:59:40;23;23;
42410;PMS5003;28056;51.112;0.984;2023-06-10T16:02:08;27;27;
42410;PMS5003;28056;51.112;0.984;2023-06-10T16:04:35;21;21;
42410;PMS5003;28056;51.112;0.984;2023-06-10T16:07:03;24;24;
42410;PMS5003;28056;51.112;0.984;2023-06-10T16:09:30;25;25;
42410;PMS5003;28056;51.112;0.984;2023-06-10T16:11:58;22;22;
42410;PMS5003;28056;51.112;0.984;2023-06-10T16:14:25;26;24;
42410;PMS5003;28056;51.112;0.984;2023-06-10T16:16:52;22;22;
42410;PMS5003;28056;51.112;0.984;2023-06-10T16:19:20;26;24;
42410;PMS5003;28056;51.112;0.984;2023-06-10T16:21:47;23;23;
42410;PMS5003;28056;51.112;0.984;2023-06-10T16:24:15;23;23;
42410;PMS5003;28056;51.112;0.984;2023-06-10T16:26:42;24;24;
42410;PMS5003;28056;51.112;0.984;2023-06-10T16:29:10;25;25;
42410;PMS5003;28056;51.112;0.984;2023-06-10T16:31:38;22;22;
42410;PMS5003;28056;51.112;0.984;2023-06-10T16:34:06;26;26;
42410;PMS5003;28056;51.112;0.984;2023-06-10T16:36:33;25;24;
42410;PMS5003;28056;51.112;0.984;2023-06-10T16:39:01;25;25;
42410;PMS5003;28056;51.112;0.984;2023-06-10T16:41:28;23;23;